Time;durP1;ratioP1;P1;durP2;ratioP2;P2;SDS_P1;SDS_P2;PMS_P1;PMS_P2;Temp;Humidity;BMP_temperature;BMP_pressure;BME280_temperature;BME280_humidity;BME280_pressure;Samples;Min_cycle;Max_cycle;Signal;HPM_P1;HPM_P2
2022/10/18 00:00:22;;;;;;;;;13.00;11.33;;;;;18.31;81.04;101628.03;5097858;27;45431;-66
2022/10/18 00:02:47;;;;;;;;;9.67;9.67;;;;;18.26;81.35;101616.75;5097712;27;48313;-61
2022/10/18 00:05:14;;;;;;;;;10.33;10.33;;;;;18.30;81.43;101628.16;5098263;27;45655;-61
2022/10/18 00:07:39;;;;;;;;;13.33;11.67;;;;;18.30;81.19;101623.66;5090356;27;45470;-63
2022/10/18 00:10:05;;;;;;;;;10.67;10.67;;;;;18.32;81.19;101627.13;5097357;27;45432;-64
2022/10/18 00:12:33;;;;;;;;;11.00;11.00;;;;;18.35;81.42;101634.09;5098049;27;45408;-62
2022/10/18 00:14:58;;;;;;;;;13.67;13.67;;;;;18.35;81.55;101633.22;5097658;27;45342;-63
2022/10/18 00:17:24;;;;;;;;;15.00;14.67;;;;;18.35;80.97;101636.75;5097367;27;45439;-66
2022/10/18 00:19:49;;;;;;;;;17.33;15.33;;;;;18.33;81.33;101638.63;5097761;27;45447;-66
2022/10/18 00:22:15;;;;;;;;;16.33;16.00;;;;;18.37;81.22;101642.84;5088232;27;45648;-64
2022/10/18 00:24:40;;;;;;;;;21.00;19.67;;;;;18.37;81.56;101645.50;5097562;27;46506;-60
2022/10/18 00:27:06;;;;;;;;;32.67;29.67;;;;;18.40;81.17;101660.47;5096209;27;47073;-63
2022/10/18 00:29:31;;;;;;;;;26.00;26.00;;;;;18.40;81.05;101661.31;5093270;27;45503;-68
2022/10/18 00:31:56;;;;;;;;;50.33;40.00;;;;;18.40;81.15;101653.34;5096991;27;45441;-64
2022/10/18 00:34:22;;;;;;;;;43.67;36.67;;;;;18.39;80.59;101659.63;5088791;27;45419;-65
2022/10/18 00:36:47;;;;;;;;;38.33;33.00;;;;;18.41;80.91;101654.22;5095841;27;46002;-66
2022/10/18 00:39:18;;;;;;;;;35.67;31.00;;;;;18.41;81.43;101652.41;5093555;27;45549;-64
2022/10/18 00:41:44;;;;;;;;;29.33;27.67;;;;;18.39;81.33;101646.31;5095324;27;45428;-66
2022/10/18 00:44:09;;;;;;;;;22.67;22.67;;;;;18.39;81.30;101640.97;5090612;27;45493;-65
2022/10/18 00:46:46;;;;;;;;;20.67;17.67;;;;;18.38;81.16;101649.91;5094994;27;46063;-64
2022/10/18 00:49:19;;;;;;;;;22.00;21.00;;;;;18.39;80.94;101653.44;5090151;27;45561;-62
2022/10/18 00:51:57;;;;;;;;;18.00;17.67;;;;;18.35;81.18;101654.53;5095512;27;45508;-64
2022/10/18 00:54:24;;;;;;;;;12.00;12.00;;;;;18.35;81.12;101658.06;5095940;27;45512;-62
2022/10/18 00:56:49;;;;;;;;;15.67;15.67;;;;;18.32;81.07;101659.09;5097005;27;46296;-63
2022/10/18 00:59:17;;;;;;;;;14.33;14.00;;;;;18.33;81.12;101662.59;5097304;27;45402;-63
2022/10/18 01:01:43;;;;;;;;;16.00;14.33;;;;;18.30;80.92;101666.28;5096975;27;45414;-67
2022/10/18 01:04:09;;;;;;;;;14.67;14.33;;;;;18.29;81.29;101669.88;5097130;27;45612;-62
2022/10/18 01:06:50;;;;;;;;;11.33;11.00;;;;;18.26;81.44;101667.38;5092777;27;45701;-61
2022/10/18 01:09:31;;;;;;;;;13.67;12.67;;;;;18.33;81.14;101663.47;5087556;27;45381;-62
2022/10/18 01:12:19;;;;;;;;;11.67;11.67;;;;;18.32;81.12;101664.41;5093296;27;45543;-61
2022/10/18 01:14:54;;;;;;;;;16.00;12.33;;;;;18.35;81.03;101662.50;5096976;27;45399;-61
2022/10/18 01:17:32;;;;;;;;;13.67;13.67;;;;;18.36;81.12;101664.25;5096642;27;45942;-66
2022/10/18 01:20:33;;;;;;;;;14.00;14.00;;;;;18.36;80.99;101669.56;5095210;27;45429;-63
2022/10/18 01:23:09;;;;;;;;;14.67;13.33;;;;;18.35;80.95;101671.38;5073647;27;45741;-62
2022/10/18 01:26:01;;;;;;;;;18.00;14.67;;;;;18.35;81.11;101670.50;5096731;27;45384;-62
2022/10/18 01:28:50;;;;;;;;;14.67;14.67;;;;;18.36;80.81;101662.44;5095984;27;45466;-64
2022/10/18 01:31:22;;;;;;;;;15.67;14.67;;;;;18.36;80.99;101664.25;5096643;27;45365;-65
2022/10/18 01:33:52;;;;;;;;;16.33;15.33;;;;;18.36;81.03;101667.78;5096890;27;45424;-63
2022/10/18 01:36:40;;;;;;;;;18.67;17.00;;;;;18.36;81.29;101673.09;5095544;27;45407;-62
2022/10/18 01:39:14;;;;;;;;;16.67;16.67;;;;;18.33;80.63;101671.44;5093151;27;45913;-66
2022/10/18 01:41:42;;;;;;;;;16.67;15.00;;;;;18.33;81.15;101674.09;5096133;27;45374;-65
2022/10/18 01:44:11;;;;;;;;;18.67;18.67;;;;;18.32;80.92;101672.41;5080058;27;45493;-64
2022/10/18 01:46:39;;;;;;;;;16.67;16.00;;;;;18.31;80.73;101673.31;5096661;27;45392;-63
2022/10/18 01:49:05;;;;;;;;;16.33;16.33;;;;;18.30;81.10;101674.28;5095237;27;46130;-63
2022/10/18 01:51:32;;;;;;;;;20.67;19.67;;;;;18.28;81.14;101673.47;5094656;27;45414;-65
2022/10/18 01:53:59;;;;;;;;;15.00;15.00;;;;;18.29;80.85;101672.53;5095920;27;45496;-65
2022/10/18 01:56:36;;;;;;;;;13.33;13.33;;;;;18.27;81.38;101663.78;5096292;27;45302;-63
2022/10/18 01:59:15;;;;;;;;;16.67;16.67;;;;;18.24;81.23;101649.75;5078012;27;46298;-61
2022/10/18 02:02:37;;;;;;;;;17.33;17.33;;;;;18.26;81.57;101659.38;5083798;27;45510;-67
2022/10/18 02:05:17;;;;;;;;;16.00;16.00;;;;;18.27;81.00;101665.59;5053479;28;45540;-65
2022/10/18 02:08:20;;;;;;;;;18.67;17.67;;;;;18.25;80.85;101657.66;5052533;28;45530;-67
2022/10/18 02:10:48;;;;;;;;;17.00;16.00;;;;;18.24;81.47;101655.94;5084819;27;46381;-64
2022/10/18 02:13:18;;;;;;;;;19.00;16.00;;;;;18.24;81.29;101652.41;5083650;27;45547;-62
2022/10/18 02:15:49;;;;;;;;;17.33;16.00;;;;;18.23;81.48;101659.53;5096253;27;45382;-61
2022/10/18 02:18:25;;;;;;;;;20.00;17.33;;;;;18.21;80.91;101661.41;5096035;27;45443;-63
2022/10/18 02:20:50;;;;;;;;;16.67;16.67;;;;;18.22;81.16;101668.47;5095666;27;45426;-65
2022/10/18 02:23:20;;;;;;;;;18.00;18.00;;;;;18.21;81.41;101663.22;5095765;27;45496;-66
2022/10/18 02:25:46;;;;;;;;;21.00;19.00;;;;;18.18;81.54;101658.91;5096092;27;45515;-63
2022/10/18 02:28:11;;;;;;;;;19.67;19.67;;;;;18.17;81.42;101662.50;5080741;27;45469;-64
2022/10/18 02:30:46;;;;;;;;;21.00;18.33;;;;;18.15;81.49;101653.72;5095904;27;45487;-66
2022/10/18 02:33:20;;;;;;;;;19.00;17.00;;;;;18.10;81.13;101661.09;5091543;27;45611;-62
2022/10/18 02:35:55;;;;;;;;;18.33;18.33;;;;;18.12;81.18;101661.03;5084100;27;45508;-65
2022/10/18 02:38:24;;;;;;;;;18.00;17.67;;;;;18.04;81.59;101662.25;5095974;27;45339;-64
2022/10/18 02:40:50;;;;;;;;;18.33;17.33;;;;;18.03;81.58;101673.84;5097606;27;46096;-62
2022/10/18 02:43:15;;;;;;;;;16.00;16.00;;;;;18.00;81.64;101667.78;5090659;27;45484;-62
2022/10/18 02:45:41;;;;;;;;;16.00;16.00;;;;;18.03;81.61;101679.19;5093136;27;45384;-60
2022/10/18 02:48:06;;;;;;;;;17.67;17.67;;;;;18.00;81.93;101674.00;5099281;27;45433;-64
2022/10/18 02:50:32;;;;;;;;;20.67;19.00;;;;;18.02;81.67;101695.22;5099019;27;45528;-62
2022/10/18 02:52:57;;;;;;;;;23.00;20.00;;;;;18.00;81.71;101689.97;5099209;27;45401;-65
2022/10/18 02:55:22;;;;;;;;;19.33;18.33;;;;;18.03;81.48;101696.97;5099290;27;45435;-64
2022/10/18 02:57:48;;;;;;;;;16.67;16.67;;;;;18.03;81.92;101699.63;5096434;27;53602;-66
2022/10/18 03:00:13;;;;;;;;;16.67;16.67;;;;;18.03;81.58;101695.16;5085984;27;65186;-63
2022/10/18 03:02:39;;;;;;;;;19.00;16.00;;;;;18.01;81.92;101690.84;5087537;27;45887;-64
2022/10/18 03:05:04;;;;;;;;;21.00;21.00;;;;;17.98;82.27;101688.31;5098873;27;45440;-63
2022/10/18 03:07:30;;;;;;;;;17.33;17.33;;;;;17.97;82.28;101684.78;5099081;27;45557;-66
2022/10/18 03:09:55;;;;;;;;;18.33;17.67;;;;;17.99;82.13;101690.03;5098941;27;46132;-63
2022/10/18 03:12:20;;;;;;;;;22.33;21.33;;;;;17.99;81.81;101684.72;5099371;27;45448;-65
2022/10/18 03:14:45;;;;;;;;;21.33;21.33;;;;;17.96;82.21;101688.38;5098651;27;45563;-67
2022/10/18 03:17:11;;;;;;;;;21.33;21.33;;;;;17.98;82.33;101693.66;5097543;27;46953;-62
2022/10/18 03:19:37;;;;;;;;;20.33;20.33;;;;;17.97;82.15;101686.59;5098715;27;45471;-61
2022/10/18 03:22:03;;;;;;;;;18.33;18.33;;;;;17.99;81.63;101704.22;5097573;27;45460;-64
2022/10/18 03:24:28;;;;;;;;;21.00;19.67;;;;;17.98;82.01;101713.16;5098924;27;45436;-63
2022/10/18 03:26:53;;;;;;;;;24.00;23.67;;;;;17.97;81.81;101707.88;5098537;27;45419;-66
2022/10/18 03:29:19;;;;;;;;;19.00;19.00;;;;;17.95;81.86;101712.44;5098278;27;49680;-65
2022/10/18 03:31:44;;;;;;;;;17.00;15.33;;;;;17.96;81.97;101711.50;5098505;27;45413;-66
2022/10/18 03:34:09;;;;;;;;;22.33;22.33;;;;;17.97;81.95;101711.41;5098719;27;45369;-63
2022/10/18 03:36:35;;;;;;;;;20.00;20.00;;;;;17.96;81.79;101709.69;5097951;27;55755;-66
2022/10/18 03:39:00;;;;;;;;;28.00;26.33;;;;;17.99;81.89;101709.53;5082993;27;45415;-65
2022/10/18 03:41:26;;;;;;;;;28.33;26.00;;;;;18.00;81.58;101715.72;5097463;27;45416;-65
2022/10/18 03:43:52;;;;;;;;;29.67;29.00;;;;;17.99;81.68;101709.53;5084969;27;45626;-63
2022/10/18 03:46:17;;;;;;;;;23.33;23.33;;;;;18.01;81.60;101714.78;5096650;27;45515;-66
2022/10/18 03:48:42;;;;;;;;;27.67;25.67;;;;;18.01;82.02;101720.97;5097941;27;46788;-66
2022/10/18 03:51:07;;;;;;;;;28.33;27.33;;;;;18.00;82.07;101719.25;5097471;27;45444;-63
2022/10/18 03:53:33;;;;;;;;;30.33;25.67;;;;;17.97;82.12;101721.19;5091104;27;45401;-63
2022/10/18 03:55:58;;;;;;;;;27.33;25.67;;;;;17.94;82.19;101724.84;5098261;27;45311;-63
2022/10/18 03:58:24;;;;;;;;;24.67;24.67;;;;;17.92;81.94;101721.44;5098068;27;46284;-67
2022/10/18 04:00:50;;;;;;;;;30.00;29.33;;;;;17.92;82.65;101733.84;5098308;27;45458;-67
2022/10/18 04:03:15;;;;;;;;;25.00;25.00;;;;;17.87;82.32;101726.97;5097791;27;45480;-64
2022/10/18 04:05:40;;;;;;;;;30.00;30.00;;;;;17.86;82.33;101735.88;5098159;27;45464;-61
2022/10/18 04:08:06;;;;;;;;;28.00;28.00;;;;;17.81;82.35;101729.03;5091546;27;46073;-63
2022/10/18 04:10:31;;;;;;;;;35.33;31.00;;;;;17.77;82.73;101746.94;5085870;27;48009;-63
2022/10/18 04:12:56;;;;;;;;;31.33;26.67;;;;;17.76;82.58;101733.69;5093822;27;45514;-65
2022/10/18 04:15:22;;;;;;;;;30.00;30.00;;;;;17.80;82.33;101740.63;5097908;27;45386;-63
2022/10/18 04:17:47;;;;;;;;;30.67;28.00;;;;;17.81;82.08;101743.25;5097003;27;60692;-66
2022/10/18 04:20:12;;;;;;;;;29.33;28.33;;;;;17.81;81.92;101737.91;5097103;27;45491;-66
2022/10/18 04:22:38;;;;;;;;;25.67;24.67;;;;;17.83;82.53;101745.81;5097504;27;45511;-61
2022/10/18 04:25:04;;;;;;;;;28.67;27.33;;;;;17.83;82.05;101744.00;5097665;27;45463;-61
2022/10/18 04:27:30;;;;;;;;;34.33;32.33;;;;;17.83;82.01;101746.66;5089294;27;46554;-64
2022/10/18 04:29:55;;;;;;;;;24.67;22.67;;;;;17.83;82.02;101746.66;5097478;27;45396;-62
2022/10/18 04:32:20;;;;;;;;;28.00;28.00;;;;;17.82;82.04;101734.31;5097769;27;45415;-64
2022/10/18 04:34:46;;;;;;;;;27.33;27.33;;;;;17.82;82.03;101739.63;5097776;27;45441;-66
2022/10/18 04:37:11;;;;;;;;;30.00;26.67;;;;;17.79;82.28;101738.91;5097198;27;45806;-63
2022/10/18 04:39:36;;;;;;;;;31.33;28.67;;;;;17.80;81.95;101741.50;5097251;27;45322;-61
2022/10/18 04:42:02;;;;;;;;;29.00;27.33;;;;;17.78;82.15;101729.16;5084633;27;45583;-64
2022/10/18 04:44:27;;;;;;;;;37.33;32.33;;;;;17.79;82.19;101734.47;5083099;27;45356;-65
2022/10/18 04:46:52;;;;;;;;;31.67;31.00;;;;;17.78;82.36;101743.31;5097630;27;45456;-66
2022/10/18 04:49:18;;;;;;;;;34.33;31.33;;;;;17.76;81.92;101744.31;5097421;27;45491;-64
2022/10/18 04:51:43;;;;;;;;;31.67;30.33;;;;;17.76;82.25;101744.31;5089954;27;45596;-62
2022/10/18 04:54:08;;;;;;;;;35.00;29.67;;;;;17.75;82.18;101742.63;5097146;27;45507;-64
2022/10/18 04:56:34;;;;;;;;;31.00;29.67;;;;;17.76;82.59;101744.31;5096943;27;45417;-61
2022/10/18 04:58:59;;;;;;;;;35.00;29.67;;;;;17.77;82.02;101754.91;5095820;27;45455;-64
2022/10/18 05:01:24;;;;;;;;;35.00;32.33;;;;;17.80;82.28;101759.25;5096907;27;45370;-63
2022/10/18 05:03:54;;;;;;;;;33.33;30.33;;;;;17.76;82.01;101745.22;5096030;27;45425;-64
2022/10/18 05:06:20;;;;;;;;;35.00;30.33;;;;;17.82;82.09;101755.59;5096123;27;45377;-65
2022/10/18 05:08:46;;;;;;;;;36.00;31.67;;;;;17.81;81.82;101759.19;5096828;27;45419;-65
2022/10/18 05:11:11;;;;;;;;;30.33;28.67;;;;;17.81;81.71;101758.31;5094665;27;45458;-64
2022/10/18 05:13:37;;;;;;;;;29.33;28.00;;;;;17.78;81.88;101748.66;5096086;27;45501;-66
2022/10/18 05:16:03;;;;;;;;;30.00;29.33;;;;;17.80;81.51;101748.63;5096714;27;45431;-62
2022/10/18 05:18:29;;;;;;;;;32.67;30.00;;;;;17.79;81.28;101747.75;5096589;27;45479;-65
2022/10/18 05:20:54;;;;;;;;;38.00;33.67;;;;;17.79;81.78;101752.22;5096887;27;45540;-64
2022/10/18 05:23:19;;;;;;;;;29.67;28.33;;;;;17.80;81.50;101752.13;5096787;27;45652;-63
2022/10/18 05:25:45;;;;;;;;;30.67;29.00;;;;;17.76;81.67;101753.19;5083705;27;45667;-63
2022/10/18 05:28:10;;;;;;;;;31.33;30.67;;;;;17.78;81.33;101756.63;5092023;27;45500;-64
2022/10/18 05:30:40;;;;;;;;;31.33;30.00;;;;;17.78;81.14;101747.78;5094564;27;45460;-63
2022/10/18 05:33:06;;;;;;;;;29.33;26.33;;;;;17.76;81.08;101753.19;5088990;27;45430;-63
2022/10/18 05:35:31;;;;;;;;;33.67;31.00;;;;;17.75;81.35;101756.78;5088671;27;46135;-62
2022/10/18 05:37:57;;;;;;;;;31.00;30.00;;;;;17.73;81.29;101753.34;5086389;27;45399;-62
2022/10/18 05:40:22;;;;;;;;;31.33;29.67;;;;;17.73;81.08;101750.69;5092984;27;45473;-61
2022/10/18 05:42:50;;;;;;;;;31.67;27.33;;;;;17.72;81.26;101758.72;5083227;27;45559;-63
2022/10/18 05:45:16;;;;;;;;;26.33;25.67;;;;;17.71;81.60;101751.69;5082898;27;46664;-65
2022/10/18 05:47:41;;;;;;;;;36.67;31.00;;;;;17.70;81.24;101757.94;5092641;27;45435;-63
2022/10/18 05:50:07;;;;;;;;;30.33;26.33;;;;;17.69;81.67;101751.75;5096571;27;45451;-64
2022/10/18 05:52:32;;;;;;;;;27.67;27.67;;;;;17.69;81.14;101754.41;5096241;27;45440;-66
2022/10/18 05:54:57;;;;;;;;;37.67;30.67;;;;;17.70;81.57;101749.94;5094173;27;45405;-66
2022/10/18 05:57:23;;;;;;;;;30.67;28.00;;;;;17.69;81.44;101749.09;5093007;27;45389;-66
2022/10/18 05:59:48;;;;;;;;;30.00;24.67;;;;;17.72;81.15;101759.59;5089725;27;45971;-64
2022/10/18 06:02:13;;;;;;;;;27.00;26.67;;;;;17.71;81.26;101765.84;5097039;27;54810;-63
2022/10/18 06:04:39;;;;;;;;;31.00;28.33;;;;;17.73;81.33;101769.31;5102829;27;46016;-62
2022/10/18 06:07:10;;;;;;;;;35.00;29.33;;;;;17.75;81.34;101772.75;5096186;27;45488;-66
2022/10/18 06:09:36;;;;;;;;;29.33;25.33;;;;;17.79;81.29;101776.19;5107909;27;45543;-63
2022/10/18 06:12:03;;;;;;;;;24.33;23.67;;;;;17.81;81.16;101774.28;5095845;27;45489;-63
2022/10/18 06:14:29;;;;;;;;;24.67;24.00;;;;;17.82;81.19;101774.22;5097588;27;46432;-63
2022/10/18 06:16:55;;;;;;;;;27.67;25.67;;;;;17.83;81.42;101781.25;5099386;27;45477;-64
2022/10/18 06:19:22;;;;;;;;;30.33;27.67;;;;;17.84;80.71;101783.00;5098917;27;45323;-60
2022/10/18 06:21:47;;;;;;;;;24.67;24.33;;;;;17.83;80.79;101789.25;5089559;27;45647;-64
2022/10/18 06:24:13;;;;;;;;;27.67;24.67;;;;;17.83;80.02;101786.59;5099187;27;45463;-60
2022/10/18 06:26:38;;;;;;;;;25.67;22.00;;;;;17.85;80.88;101789.19;5099625;27;45448;-63
2022/10/18 06:29:03;;;;;;;;;22.67;21.67;;;;;17.84;80.83;101787.47;5099012;27;46770;-61
2022/10/18 06:31:28;;;;;;;;;22.33;21.33;;;;;17.84;80.89;101785.66;5094956;27;45501;-63
2022/10/18 06:33:55;;;;;;;;;25.67;25.00;;;;;17.86;80.81;101790.91;5096508;27;45367;-61
2022/10/18 06:36:21;;;;;;;;;22.33;22.33;;;;;17.86;80.59;101790.91;5089532;27;45459;-60
2022/10/18 06:38:46;;;;;;;;;21.00;20.00;;;;;17.90;80.86;101794.31;5098767;27;45423;-62
2022/10/18 06:41:12;;;;;;;;;22.33;21.33;;;;;17.91;80.32;101788.03;5097600;27;45489;-62
2022/10/18 06:43:38;;;;;;;;;18.67;18.00;;;;;17.93;80.89;101795.00;5086814;27;45406;-59
2022/10/18 06:46:06;;;;;;;;;22.33;22.33;;;;;17.95;80.25;101800.28;5095513;27;45431;-63
2022/10/18 06:48:33;;;;;;;;;25.67;23.00;;;;;17.93;80.70;101797.69;5097314;27;45418;-61
2022/10/18 06:51:01;;;;;;;;;19.33;18.00;;;;;17.95;80.09;101797.63;5097070;27;45509;-63
2022/10/18 06:53:30;;;;;;;;;30.00;26.67;;;;;17.96;79.94;101805.50;5098189;27;45570;-60
2022/10/18 06:56:13;;;;;;;;;20.67;19.67;;;;;17.97;79.89;101806.38;5098413;27;45383;-62
2022/10/18 06:58:39;;;;;;;;;20.00;17.67;;;;;17.99;79.85;101808.03;5098551;27;45401;-63
2022/10/18 07:01:14;;;;;;;;;17.33;15.67;;;;;17.99;79.78;101809.81;5098710;27;45380;-61
2022/10/18 07:03:40;;;;;;;;;19.00;19.00;;;;;17.98;79.72;101814.28;5097006;27;47259;-64
2022/10/18 07:06:08;;;;;;;;;17.67;16.67;;;;;18.00;79.57;101819.53;5096808;27;45431;-63
2022/10/18 07:08:34;;;;;;;;;18.67;16.67;;;;;17.99;79.42;101821.34;5098565;27;45377;-62
2022/10/18 07:10:59;;;;;;;;;14.67;14.33;;;;;17.95;79.75;101817.09;5098333;27;45448;-61
2022/10/18 07:13:29;;;;;;;;;17.67;17.67;;;;;17.92;79.78;101813.69;5098376;27;45521;-64
2022/10/18 07:16:09;;;;;;;;;18.67;18.00;;;;;17.95;80.59;101818.91;5098283;27;45524;-63
2022/10/18 07:18:36;;;;;;;;;20.33;18.33;;;;;17.94;80.08;101826.00;5097917;27;45472;-63
2022/10/18 07:21:03;;;;;;;;;19.67;19.67;;;;;17.93;79.97;101816.31;5097491;27;45681;-61
2022/10/18 07:23:31;;;;;;;;;22.33;20.33;;;;;17.96;79.94;101825.94;5097418;27;45580;-62
2022/10/18 07:25:57;;;;;;;;;22.33;19.00;;;;;17.96;79.96;101832.13;5096743;27;45307;-63
2022/10/18 07:28:22;;;;;;;;;17.67;17.67;;;;;17.94;80.01;101835.78;5097458;27;45387;-63
2022/10/18 07:30:47;;;;;;;;;21.00;21.00;;;;;17.95;80.22;101841.06;5096342;27;45338;-61
2022/10/18 07:33:13;;;;;;;;;15.33;15.33;;;;;17.96;80.26;101833.94;5097091;27;53844;-63
2022/10/18 07:35:38;;;;;;;;;12.67;12.67;;;;;17.94;79.33;101836.66;5097219;27;45422;-63
2022/10/18 07:38:03;;;;;;;;;18.33;17.00;;;;;17.97;80.06;101841.81;5097136;27;50704;-63
2022/10/18 07:40:29;;;;;;;;;17.00;15.33;;;;;17.98;79.78;101842.72;5097182;27;45357;-62
2022/10/18 07:42:54;;;;;;;;;19.00;18.67;;;;;17.99;79.70;101845.28;5092064;27;49151;-61
2022/10/18 07:45:19;;;;;;;;;14.67;14.67;;;;;18.02;79.59;101845.16;5087241;27;45453;-61
2022/10/18 07:47:45;;;;;;;;;16.33;15.33;;;;;18.02;79.73;101845.16;5096389;27;45527;-61
2022/10/18 07:50:10;;;;;;;;;17.00;14.67;;;;;18.06;79.39;101846.75;5097573;27;45514;-61
2022/10/18 07:52:35;;;;;;;;;14.67;14.33;;;;;18.07;79.27;101852.94;5097059;27;50712;-61
2022/10/18 07:55:00;;;;;;;;;12.00;11.67;;;;;18.12;79.30;101863.38;5097597;27;45356;-62
2022/10/18 07:57:26;;;;;;;;;17.00;15.33;;;;;18.09;78.88;101867.03;5097574;27;45445;-61
2022/10/18 07:59:55;;;;;;;;;13.67;12.33;;;;;18.07;78.51;101867.09;5097522;27;45409;-62
2022/10/18 08:02:22;;;;;;;;;12.00;12.00;;;;;18.09;79.36;101875.03;5097183;27;45415;-61
2022/10/18 08:04:47;;;;;;;;;13.25;12.25;;;;;18.11;79.10;101875.81;5097347;27;45417;-62
2022/10/18 08:07:12;;;;;;;;;13.67;13.67;;;;;18.10;78.76;101876.75;5096897;27;51863;-62
2022/10/18 08:09:38;;;;;;;;;14.00;13.33;;;;;18.13;78.85;101876.59;5097341;27;45346;-63
2022/10/18 08:12:06;;;;;;;;;14.67;12.67;;;;;18.08;78.60;101871.50;5097015;27;50161;-64
2022/10/18 08:14:31;;;;;;;;;16.33;16.33;;;;;18.17;78.53;101877.34;5097162;27;45469;-61
2022/10/18 08:16:57;;;;;;;;;13.67;13.67;;;;;18.18;78.37;101889.69;5097214;27;45474;-62
2022/10/18 08:19:22;;;;;;;;;11.00;11.00;;;;;18.18;78.09;101885.22;5096759;27;45643;-62
2022/10/18 08:21:47;;;;;;;;;13.33;11.33;;;;;18.16;78.32;101887.13;5096894;27;45447;-63
2022/10/18 08:24:13;;;;;;;;;15.67;14.67;;;;;18.12;78.05;101888.19;5096948;27;45385;-62
2022/10/18 08:26:38;;;;;;;;;11.75;11.25;;;;;18.15;78.06;101896.03;5097216;27;45400;-62
2022/10/18 08:29:03;;;;;;;;;14.50;11.50;;;;;18.17;77.91;101898.63;5097155;27;45413;-62
2022/10/18 08:31:29;;;;;;;;;11.00;11.00;;;;;18.18;77.97;101903.88;5096964;27;45530;-64
2022/10/18 08:33:58;;;;;;;;;11.67;11.00;;;;;18.21;77.82;101905.53;5096760;27;45383;-61
2022/10/18 08:36:24;;;;;;;;;15.00;13.33;;;;;18.16;77.36;101902.22;5097179;27;45437;-61
2022/10/18 08:38:49;;;;;;;;;16.67;16.67;;;;;18.15;77.93;101909.34;5096702;27;45596;-63
2022/10/18 08:41:24;;;;;;;;;13.33;13.33;;;;;18.15;77.63;101905.81;5095200;27;46059;-61
2022/10/18 08:44:07;;;;;;;;;12.25;12.25;;;;;18.14;77.17;101902.31;5083652;27;45468;-62
2022/10/18 08:46:37;;;;;;;;;12.33;11.33;;;;;18.18;77.78;101897.69;5083840;27;45362;-61
2022/10/18 08:49:05;;;;;;;;;11.50;10.50;;;;;18.18;77.40;101892.38;5096976;27;45410;-63
2022/10/18 08:51:44;;;;;;;;;7.00;7.00;;;;;18.18;77.63;101890.56;5096351;27;46315;-63
2022/10/18 08:54:12;;;;;;;;;11.50;9.75;;;;;18.21;77.47;101894.88;5096742;27;45372;-62
2022/10/18 08:56:41;;;;;;;;;10.75;10.75;;;;;18.21;77.05;101889.56;5096690;27;45439;-63
2022/10/18 08:59:11;;;;;;;;;16.33;16.33;;;;;18.18;77.33;101890.56;5096587;27;45531;-62
2022/10/18 09:01:58;;;;;;;;;14.67;13.67;;;;;18.17;77.14;101887.97;5096157;27;45390;-60
2022/10/18 09:04:44;;;;;;;;;12.75;12.25;;;;;18.23;77.70;101895.69;5096062;27;45468;-62
2022/10/18 09:07:12;;;;;;;;;12.33;12.33;;;;;18.30;77.67;101892.66;5096634;27;45503;-62
2022/10/18 09:09:53;;;;;;;;;17.67;15.00;;;;;18.37;77.34;101879.91;5096164;27;45302;-62
2022/10/18 09:12:41;;;;;;;;;12.75;10.50;;;;;18.44;76.86;101891.16;5096792;27;46377;-60
2022/10/18 09:15:14;;;;;;;;;10.50;9.25;;;;;18.47;76.68;101891.84;5094574;27;45505;-62
2022/10/18 09:17:46;;;;;;;;;10.50;10.00;;;;;18.44;76.46;101897.34;5096519;27;45440;-62
2022/10/18 09:20:24;;;;;;;;;18.67;18.67;;;;;18.41;76.64;101886.81;5095873;27;45401;-62
2022/10/18 09:22:54;;;;;;;;;11.25;11.25;;;;;18.43;76.34;101887.63;5096017;27;46186;-62
2022/10/18 09:25:35;;;;;;;;;7.75;7.75;;;;;18.47;76.24;101891.84;5095939;27;45559;-61
2022/10/18 09:28:14;;;;;;;;;8.50;7.25;;;;;18.51;75.97;101895.22;5096211;27;45449;-63
2022/10/18 09:30:49;;;;;;;;;4.00;4.00;;;;;18.51;75.35;101889.91;5096148;27;45383;-61
2022/10/18 09:33:51;;;;;;;;;5.75;5.75;;;;;18.53;75.61;101888.03;5096139;27;45430;-62
2022/10/18 09:36:21;;;;;;;;;11.00;11.00;;;;;18.55;76.06;101886.16;5096046;27;45426;-62
2022/10/18 09:38:51;;;;;;;;;9.00;9.00;;;;;18.61;75.92;101893.84;5095974;27;45475;-63
2022/10/18 09:41:23;;;;;;;;;11.67;11.67;;;;;18.60;75.28;101889.47;5095731;27;45549;-62
2022/10/18 09:44:11;;;;;;;;;9.00;9.00;;;;;18.67;75.68;101890.91;5094229;27;46310;-63
2022/10/18 09:46:42;;;;;;;;;3.75;3.75;;;;;18.81;75.08;101892.94;5095836;27;45447;-61
2022/10/18 09:49:15;;;;;;;;;8.75;5.25;;;;;18.88;74.74;101901.47;5095389;27;45407;-63
2022/10/18 09:51:42;;;;;;;;;6.50;6.50;;;;;18.86;74.20;101898.00;5095948;27;45421;-61
2022/10/18 09:54:23;;;;;;;;;6.50;6.50;;;;;18.77;74.77;101900.19;5095631;27;45984;-62
2022/10/18 09:57:10;;;;;;;;;4.00;4.00;;;;;18.78;74.62;101903.75;5095674;27;45392;-66
2022/10/18 09:59:48;;;;;;;;;5.00;4.00;;;;;18.79;74.60;101901.94;5095713;27;45390;-63
2022/10/18 10:02:20;;;;;;;;;4.50;4.50;;;;;18.83;74.46;101900.84;5095712;27;45510;-63
2022/10/18 10:04:47;;;;;;;;;4.75;4.25;;;;;18.83;75.23;101899.03;5095685;27;45428;-63
2022/10/18 10:07:33;;;;;;;;;5.50;5.50;;;;;18.84;74.57;101900.78;5095636;27;45432;-64
2022/10/18 10:10:19;;;;;;;;;3.75;3.00;;;;;18.82;75.13;101899.97;5095713;27;45382;-62
2022/10/18 10:12:45;;;;;;;;;3.75;2.75;;;;;18.82;74.80;101894.63;5096235;27;45454;-60
2022/10/18 10:15:25;;;;;;;;;3.00;3.00;;;;;18.85;74.81;101893.63;5095051;27;46305;-61
2022/10/18 10:17:57;;;;;;;;;3.75;3.75;;;;;18.90;75.26;101899.59;5095280;27;45478;-61
2022/10/18 10:20:34;;;;;;;;;2.75;2.75;;;;;18.93;74.38;101888.78;5095531;27;45476;-62
2022/10/18 10:23:13;;;;;;;;;3.00;3.00;;;;;18.93;74.54;101891.44;5095610;27;45401;-61
2022/10/18 10:25:41;;;;;;;;;18.00;18.00;;;;;18.96;74.38;101891.28;5095482;27;46058;-64
2022/10/18 10:28:14;;;;;;;;;5.75;4.00;;;;;19.00;73.84;101906.22;5095166;27;45396;-61
2022/10/18 10:30:39;;;;;;;;;2.50;2.50;;;;;19.00;74.01;101900.88;5095402;27;45531;-60
2022/10/18 10:33:15;;;;;;;;;3.75;2.00;;;;;19.05;74.10;101898.84;5095127;27;45378;-62
2022/10/18 10:35:40;;;;;;;;;2.00;2.00;;;;;19.06;73.66;101903.22;5095416;27;45492;-62
2022/10/18 10:38:06;;;;;;;;;2.75;2.75;;;;;19.09;73.61;101899.53;5095006;27;45340;-61
2022/10/18 10:40:51;;;;;;;;;6.25;6.25;;;;;19.11;73.75;101903.00;5094738;27;45416;-59
2022/10/18 10:43:32;;;;;;;;;6.75;6.75;;;;;19.10;74.29;101896.81;5086506;27;45461;-60
2022/10/18 10:46:06;;;;;;;;;8.25;6.00;;;;;19.09;73.92;101892.41;5090803;27;47105;-65
2022/10/18 10:48:54;;;;;;;;;6.75;5.50;;;;;19.09;74.29;101892.41;5095062;27;45405;-60
2022/10/18 10:51:31;;;;;;;;;8.50;8.50;;;;;19.13;74.45;101902.00;5095180;27;45469;-64
2022/10/18 10:54:15;;;;;;;;;7.75;7.00;;;;;19.15;74.74;101902.75;5090511;27;45397;-62
2022/10/18 10:56:49;;;;;;;;;5.75;5.00;;;;;19.20;74.42;101898.03;5074318;27;47226;-64
2022/10/18 10:59:19;;;;;;;;;5.50;5.50;;;;;19.22;73.77;101894.47;5088941;27;45785;-64
2022/10/18 11:01:49;;;;;;;;;6.25;6.25;;;;;19.24;73.95;101890.78;5082379;27;45412;-62
2022/10/18 11:04:30;;;;;;;;;7.25;7.25;;;;;19.26;74.09;101896.00;5097426;27;45711;-62
2022/10/18 11:07:08;;;;;;;;;10.50;10.50;;;;;19.28;73.78;101891.47;5097991;27;46020;-62
2022/10/18 11:09:58;;;;;;;;;9.50;9.25;;;;;19.30;74.32;101890.44;5097048;27;45642;-64
2022/10/18 11:12:31;;;;;;;;;7.00;7.00;;;;;19.31;73.57;101885.97;5097590;27;45435;-61
2022/10/18 11:15:08;;;;;;;;;9.00;9.00;;;;;19.26;73.67;101888.88;5083426;27;45480;-64
2022/10/18 11:17:45;;;;;;;;;22.00;19.33;;;;;19.23;73.69;101888.16;5098067;27;46331;-65
2022/10/18 11:20:39;;;;;;;;;8.50;8.50;;;;;19.17;74.14;101886.69;5097494;27;45615;-68
2022/10/18 11:23:29;;;;;;;;;10.75;9.25;;;;;19.16;74.29;101882.31;5094297;27;45558;-68